Time;durP1;ratioP1;P1;durP2;ratioP2;P2;SDS_P1;SDS_P2;PMS_P1;PMS_P2;Temp;Humidity;BMP_temperature;BMP_pressure;BME280_temperature;BME280_humidity;BME280_pressure;Samples;Min_cycle;Max_cycle;Signal;HPM_P1;HPM_P2
2021/03/14 00:01:53;;;;;;;3.20;1.83;;;15.40;99.10;;;;;;4920322;29;20273;-91
2021/03/14 00:04:27;;;;;;;3.50;1.80;;;15.40;99.80;;;;;;4920651;29;20857;-91
2021/03/14 00:06:57;;;;;;;3.43;1.77;;;15.60;99.30;;;;;;4910722;29;20202;-92
2021/03/14 00:09:28;;;;;;;1.67;1.57;;;15.60;99.10;;;;;;4901687;29;20556;-91
2021/03/14 00:12:00;;;;;;;2.13;1.80;;;15.50;99.90;;;;;;4908167;29;20213;-91
2021/03/14 00:14:31;;;;;;;2.30;1.87;;;15.50;99.90;;;;;;4916235;29;20209;-92
2021/03/14 00:17:02;;;;;;;3.77;1.70;;;15.40;99.60;;;;;;4912821;29;20275;-91
2021/03/14 00:19:37;;;;;;;3.40;1.80;;;15.20;99.40;;;;;;4905230;29;20257;-92
2021/03/14 00:22:10;;;;;;;2.50;1.80;;;15.30;99.50;;;;;;4914113;29;20205;-91
2021/03/14 00:24:40;;;;;;;3.43;1.70;;;15.20;99.90;;;;;;4900449;29;20220;-91
2021/03/14 00:27:12;;;;;;;2.40;1.67;;;15.20;99.90;;;;;;4888138;29;20256;-91
2021/03/14 00:29:43;;;;;;;3.63;1.50;;;15.30;99.90;;;;;;4866409;29;20218;-92
2021/03/14 00:32:15;;;;;;;3.00;1.90;;;15.30;99.60;;;;;;4887479;29;20209;-91
2021/03/14 00:34:45;;;;;;;2.80;2.03;;;15.30;99.20;;;;;;4904469;29;20236;-88
2021/03/14 00:37:17;;;;;;;1.67;1.50;;;15.20;99.90;;;;;;4902533;29;20214;-92
2021/03/14 00:39:47;;;;;;;2.60;1.60;;;15.20;99.50;;;;;;4903918;29;20253;-93
2021/03/14 00:42:19;;;;;;;3.63;1.83;;;15.10;99.50;;;;;;4899869;29;20604;-93
2021/03/14 00:44:49;;;;;;;2.27;1.90;;;15.10;99.40;;;;;;4899479;29;20225;-93
2021/03/14 00:47:20;;;;;;;1.73;1.50;;;15.00;98.90;;;;;;4899306;29;20689;-92
2021/03/14 00:49:56;;;;;;;2.73;1.40;;;14.90;99.50;;;;;;4887483;29;20261;-92
2021/03/14 00:52:26;;;;;;;3.47;1.70;;;14.80;99.50;;;;;;4901305;29;20201;-92
2021/03/14 00:54:58;;;;;;;5.13;1.63;;;14.70;99.30;;;;;;4884237;29;20218;-92
2021/03/14 00:57:33;;;;;;;4.07;1.80;;;14.60;99.90;;;;;;4880419;29;20217;-91
2021/03/14 01:00:05;;;;;;;3.13;1.97;;;14.60;99.30;;;;;;4893702;29;20258;-92
2021/03/14 01:02:36;;;;;;;3.40;1.60;;;14.50;99.90;;;;;;4898716;29;20206;-91
2021/03/14 01:05:09;;;;;;;2.20;1.37;;;14.50;99.90;;;;;;4901015;29;20269;-91
2021/03/14 01:07:40;;;;;;;3.13;1.70;;;14.40;99.90;;;;;;4899923;29;20217;-91
2021/03/14 01:10:12;;;;;;;5.77;1.70;;;14.40;99.90;;;;;;4898801;29;20209;-90
2021/03/14 01:12:45;;;;;;;3.10;1.57;;;14.30;99.90;;;;;;4899207;29;20214;-92
2021/03/14 01:15:17;;;;;;;3.53;1.70;;;14.20;99.90;;;;;;4898997;29;20694;-92
2021/03/14 01:17:49;;;;;;;3.23;1.90;;;14.20;99.80;;;;;;4905080;29;20244;-92
2021/03/14 01:20:23;;;;;;;5.33;2.50;;;14.20;99.90;;;;;;4898781;29;20237;-92
2021/03/14 01:22:53;;;;;;;2.73;2.00;;;14.10;99.90;;;;;;4900150;29;20221;-91
2021/03/14 01:25:24;;;;;;;5.73;2.17;;;14.00;99.90;;;;;;4906443;29;20236;-91
2021/03/14 01:27:57;;;;;;;2.43;2.00;;;13.90;99.90;;;;;;4926042;29;20208;-92
2021/03/14 01:30:28;;;;;;;3.00;2.20;;;13.80;99.90;;;;;;4930099;29;20241;-92
2021/03/14 01:32:58;;;;;;;3.10;2.43;;;13.60;99.90;;;;;;4930476;29;20700;-92
2021/03/14 01:35:29;;;;;;;4.57;2.57;;;13.50;99.90;;;;;;4912958;29;20202;-92
2021/03/14 01:38:01;;;;;;;3.00;2.60;;;13.40;99.90;;;;;;4910205;29;20234;-92
2021/03/14 01:40:34;;;;;;;3.23;2.87;;;13.30;99.90;;;;;;4892994;29;20305;-92
2021/03/14 01:43:06;;;;;;;5.73;3.30;;;13.10;99.90;;;;;;4892850;29;20206;-91
2021/03/14 01:45:36;;;;;;;4.53;3.23;;;13.00;99.90;;;;;;4892695;29;20676;-91
2021/03/14 01:48:08;;;;;;;4.97;3.00;;;12.80;99.90;;;;;;4890588;29;20218;-92
2021/03/14 01:50:39;;;;;;;2.77;2.13;;;12.70;99.90;;;;;;4884401;29;20221;-92
2021/03/14 01:53:09;;;;;;;2.77;2.17;;;12.60;99.90;;;;;;4908221;29;20241;-92
2021/03/14 01:55:40;;;;;;;2.93;2.03;;;12.50;99.90;;;;;;4906324;29;20214;-90
2021/03/14 01:58:14;;;;;;;5.07;1.97;;;12.40;99.90;;;;;;4901596;29;20241;-91
2021/03/14 02:00:45;;;;;;;2.47;1.90;;;12.20;99.90;;;;;;4900824;29;20253;-92
2021/03/14 02:03:16;;;;;;;3.40;2.13;;;12.20;99.90;;;;;;4883632;29;20214;-91
2021/03/14 02:05:47;;;;;;;3.57;2.50;;;12.10;99.90;;;;;;4883607;29;20214;-91
2021/03/14 02:08:17;;;;;;;3.93;3.27;;;11.90;99.90;;;;;;4882038;29;20210;-91
2021/03/14 02:10:51;;;;;;;5.27;4.10;;;11.80;99.90;;;;;;4901392;29;20216;-91
2021/03/14 02:13:30;;;;;;;5.00;3.50;;;11.70;99.90;;;;;;4916787;29;20206;-92
2021/03/14 02:16:07;;;;;;;6.50;2.77;;;11.60;99.90;;;;;;4902678;29;20239;-93
2021/03/14 02:18:40;;;;;;;3.47;2.57;;;11.40;99.90;;;;;;4901256;29;20226;-91
2021/03/14 02:21:13;;;;;;;3.63;2.20;;;11.30;99.90;;;;;;4906094;29;20523;-90
2021/03/14 02:23:48;;;;;;;3.17;2.30;;;11.20;99.90;;;;;;4889258;29;20214;-91
2021/03/14 02:26:22;;;;;;;4.63;3.07;;;11.10;99.90;;;;;;4888095;29;20273;-91
2021/03/14 02:28:55;;;;;;;5.67;3.50;;;11.00;99.90;;;;;;4899874;29;20214;-91
2021/03/14 02:31:28;;;;;;;4.73;2.83;;;10.90;99.90;;;;;;4909363;29;20217;-90
2021/03/14 02:34:04;;;;;;;4.57;2.40;;;10.80;99.90;;;;;;4920250;29;20205;-91
2021/03/14 02:36:37;;;;;;;4.80;2.23;;;10.70;99.90;;;;;;4918341;29;20225;-95
2021/03/14 02:39:10;;;;;;;4.90;3.20;;;10.60;99.90;;;;;;4919141;29;20213;-92
2021/03/14 02:41:43;;;;;;;7.13;3.07;;;10.50;99.90;;;;;;4930700;29;20257;-96
2021/03/14 02:44:17;;;;;;;4.47;2.70;;;10.50;99.90;;;;;;4924245;29;20213;-96
2021/03/14 02:46:54;;;;;;;4.07;2.40;;;10.40;99.90;;;;;;4920219;29;20264;-96
2021/03/14 02:49:35;;;;;;;5.37;2.27;;;10.30;99.90;;;;;;4891499;29;20218;-93
2021/03/14 02:52:25;;;;;;;4.77;3.07;;;10.30;99.90;;;;;;4900126;29;20666;-91
2021/03/14 02:54:58;;;;;;;5.83;4.03;;;10.20;99.90;;;;;;4899989;29;20265;-90
2021/03/14 02:57:29;;;;;;;5.60;4.00;;;10.10;99.90;;;;;;4895928;29;20222;-90
2021/03/14 03:00:02;;;;;;;7.37;5.27;;;10.10;99.90;;;;;;4905223;29;20742;-88
2021/03/14 03:02:34;;;;;;;6.50;4.70;;;10.00;99.90;;;;;;4901062;29;20280;-88
2021/03/14 03:05:07;;;;;;;5.00;4.20;;;9.90;99.90;;;;;;4899798;29;20253;-88
2021/03/14 03:07:39;;;;;;;4.53;3.93;;;9.80;99.90;;;;;;4906085;29;20206;-89
2021/03/14 03:10:11;;;;;;;5.03;3.20;;;9.80;99.90;;;;;;4889994;29;20225;-89
2021/03/14 03:12:45;;;;;;;4.43;3.47;;;9.70;99.90;;;;;;4908602;29;20210;-87
2021/03/14 03:15:20;;;;;;;3.93;3.50;;;9.60;99.90;;;;;;4899785;29;20262;-88
2021/03/14 03:17:51;;;;;;;5.00;3.40;;;9.60;99.90;;;;;;4905478;29;20228;-88
2021/03/14 03:20:26;;;;;;;4.30;3.13;;;9.50;99.90;;;;;;4893334;29;20328;-88
2021/03/14 03:22:57;;;;;;;5.00;3.27;;;9.50;99.90;;;;;;4898616;29;20237;-85
2021/03/14 03:25:28;;;;;;;4.27;3.33;;;9.50;99.90;;;;;;4906248;29;20727;-83
2021/03/14 03:27:59;;;;;;;4.43;3.47;;;9.40;99.90;;;;;;4896756;29;20963;-87
2021/03/14 03:30:32;;;;;;;4.47;3.83;;;9.30;99.90;;;;;;4899223;29;20269;-86
2021/03/14 03:33:03;;;;;;;5.90;4.53;;;9.30;99.90;;;;;;4900468;29;20216;-86
2021/03/14 03:35:33;;;;;;;3.10;2.73;;;9.20;99.90;;;;;;4886384;29;20592;-87
2021/03/14 03:38:03;;;;;;;3.30;2.53;;;9.20;99.90;;;;;;4906110;29;20307;-86
2021/03/14 03:40:35;;;;;;;6.63;2.83;;;9.20;99.90;;;;;;4903649;29;20229;-86
2021/03/14 03:43:11;;;;;;;5.67;3.23;;;9.10;99.90;;;;;;4900176;29;20292;-86
2021/03/14 03:45:48;;;;;;;5.80;3.90;;;9.00;99.90;;;;;;4906848;29;20201;-85
2021/03/14 03:48:23;;;;;;;9.40;5.37;;;9.00;99.90;;;;;;4905545;29;20233;-85
2021/03/14 03:50:58;;;;;;;10.13;6.60;;;8.90;99.90;;;;;;4568156;29;9999828;-86
2021/03/14 03:53:28;;;;;;;11.33;7.87;;;8.90;99.90;;;;;;4906596;29;20682;-86
2021/03/14 03:56:00;;;;;;;10.37;6.97;;;8.90;99.90;;;;;;4907845;29;20281;-84
2021/03/14 03:58:32;;;;;;;13.40;7.90;;;8.90;99.90;;;;;;4894258;29;20240;-86
2021/03/14 04:01:06;;;;;;;13.93;8.20;;;8.80;99.90;;;;;;4899786;29;20253;-86
2021/03/14 04:03:41;;;;;;;10.13;6.40;;;8.70;99.90;;;;;;4907011;29;20336;-86
2021/03/14 04:06:13;;;;;;;10.97;6.27;;;8.70;99.90;;;;;;4909446;29;20232;-85
2021/03/14 04:08:45;;;;;;;10.90;7.73;;;8.60;99.90;;;;;;4904731;29;20264;-86
2021/03/14 04:11:17;;;;;;;11.80;6.50;;;8.60;99.90;;;;;;4896382;29;20214;-85
2021/03/14 04:13:49;;;;;;;13.43;7.00;;;8.60;99.90;;;;;;4884623;29;20222;-86
2021/03/14 04:16:23;;;;;;;8.60;5.17;;;8.60;99.90;;;;;;4901887;29;20630;-86
2021/03/14 04:18:55;;;;;;;9.83;5.83;;;8.50;99.90;;;;;;4905933;29;20244;-87
2021/03/14 04:21:27;;;;;;;9.73;6.73;;;8.50;99.90;;;;;;4913216;29;20259;-87
2021/03/14 04:23:58;;;;;;;11.20;7.60;;;8.40;99.90;;;;;;4907804;29;20287;-86
2021/03/14 04:26:28;;;;;;;16.70;7.33;;;8.40;99.90;;;;;;4899572;29;20204;-86
2021/03/14 04:29:00;;;;;;;9.97;7.50;;;8.30;99.90;;;;;;4904439;29;20273;-87
2021/03/14 04:31:32;;;;;;;9.20;6.87;;;8.30;99.90;;;;;;4967852;23;20332;-85
2021/03/14 04:34:04;;;;;;;13.10;10.13;;;8.30;99.90;;;;;;4905138;29;20216;-86
2021/03/14 04:36:50;;;;;;;13.63;10.97;;;8.20;99.90;;;;;;4918990;29;20604;-88
2021/03/14 04:39:24;;;;;;;13.90;11.10;;;8.30;99.90;;;;;;4919803;29;20216;-87
2021/03/14 04:42:23;;;;;;;17.37;11.03;;;8.20;99.90;;;;;;4914768;29;20259;-87
2021/03/14 04:45:24;;;;;;;14.53;9.80;;;8.10;99.90;;;;;;4924108;29;20213;-87
2021/03/14 04:47:58;;;;;;;12.77;8.97;;;8.10;99.90;;;;;;4920122;29;20223;-85
2021/03/14 04:50:30;;;;;;;11.90;6.43;;;8.10;99.90;;;;;;4923773;29;20244;-86
2021/03/14 04:53:02;;;;;;;8.60;5.87;;;8.10;99.90;;;;;;4931034;29;20208;-85
2021/03/14 04:55:35;;;;;;;6.13;4.87;;;8.10;99.90;;;;;;4926205;29;20198;-86
2021/03/14 04:58:05;;;;;;;7.83;4.37;;;8.00;99.90;;;;;;4930741;29;20228;-87
2021/03/14 05:00:35;;;;;;;6.13;3.90;;;8.00;99.90;;;;;;4930820;29;20243;-86
2021/03/14 05:03:11;;;;;;;7.27;3.97;;;8.00;99.90;;;;;;4935799;29;20219;-86
2021/03/14 05:05:44;;;;;;;7.37;4.10;;;8.00;99.90;;;;;;4934331;29;20218;-86
2021/03/14 05:08:18;;;;;;;13.43;4.23;;;7.90;99.90;;;;;;4936812;29;20224;-86
2021/03/14 05:10:49;;;;;;;4.83;3.50;;;7.90;99.90;;;;;;4933378;29;20212;-87
2021/03/14 05:13:21;;;;;;;4.93;3.50;;;7.90;99.90;;;;;;4922804;29;20197;-87
2021/03/14 05:15:58;;;;;;;5.97;3.97;;;7.90;99.90;;;;;;4932838;29;20957;-87
2021/03/14 05:18:30;;;;;;;4.23;3.30;;;7.90;99.90;;;;;;4926657;29;20216;-85
2021/03/14 05:21:01;;;;;;;3.80;3.40;;;7.80;99.90;;;;;;4926612;29;20280;-87
2021/03/14 05:23:33;;;;;;;7.33;3.40;;;7.80;99.90;;;;;;4926107;29;20219;-86
2021/03/14 05:26:04;;;;;;;6.60;3.53;;;7.80;99.90;;;;;;4940089;29;20212;-85
2021/03/14 05:28:34;;;;;;;6.80;3.40;;;7.70;99.90;;;;;;4928207;29;20205;-86
2021/03/14 05:31:29;;;;;;;4.83;3.07;;;7.70;99.90;;;;;;4922181;29;20295;-87
2021/03/14 05:34:02;;;;;;;3.87;2.67;;;7.60;99.90;;;;;;4911437;29;20667;-87
2021/03/14 05:36:34;;;;;;;7.83;2.70;;;7.60;99.90;;;;;;4910918;29;20223;-86
2021/03/14 05:39:07;;;;;;;6.40;2.90;;;7.60;99.90;;;;;;4921531;29;20213;-87
2021/03/14 05:41:38;;;;;;;4.67;2.80;;;7.70;99.90;;;;;;4921179;29;20272;-86
2021/03/14 05:44:09;;;;;;;4.53;2.47;;;7.60;99.90;;;;;;4918984;29;20201;-87
2021/03/14 05:46:41;;;;;;;3.83;2.60;;;7.60;99.90;;;;;;4917530;29;20246;-87
2021/03/14 05:49:13;;;;;;;3.83;2.73;;;7.80;99.90;;;;;;4930213;29;20204;-85
2021/03/14 05:51:46;;;;;;;4.07;2.70;;;7.90;99.90;;;;;;4928505;29;20209;-86
2021/03/14 05:54:23;;;;;;;4.93;3.27;;;7.90;99.90;;;;;;4925609;29;20235;-87
2021/03/14 05:56:55;;;;;;;4.47;2.70;;;7.90;99.90;;;;;;4914489;29;20220;-86
2021/03/14 05:59:25;;;;;;;5.07;2.67;;;8.10;99.90;;;;;;4921730;29;20327;-86
2021/03/14 06:01:59;;;;;;;6.47;3.00;;;8.50;99.90;;;;;;4922659;29;20236;-86
2021/03/14 06:04:31;;;;;;;3.90;3.13;;;8.60;99.90;;;;;;4922613;29;20228;-87
2021/03/14 06:07:11;;;;;;;11.63;4.93;;;9.10;99.90;;;;;;4925490;29;20208;-86
2021/03/14 06:09:43;;;;;;;13.03;5.10;;;9.40;99.90;;;;;;4927061;29;20705;-86
2021/03/14 06:12:15;;;;;;;7.93;5.00;;;9.60;99.90;;;;;;4928107;29;20247;-88
2021/03/14 06:14:46;;;;;;;10.37;5.57;;;9.60;99.90;;;;;;4920063;29;20257;-86
2021/03/14 06:17:15;;;;;;;9.57;5.07;;;9.50;99.90;;;;;;4923262;29;20251;-86
2021/03/14 06:19:50;;;;;;;10.30;5.80;;;9.50;99.90;;;;;;4924159;29;20312;-86
2021/03/14 06:22:40;;;;;;;8.80;4.53;;;9.50;99.90;;;;;;4924488;29;20208;-85
2021/03/14 06:25:25;;;;;;;10.10;4.90;;;9.50;99.90;;;;;;4916517;29;20208;-86
2021/03/14 06:27:55;;;;;;;10.10;5.37;;;9.50;99.90;;;;;;4903598;29;20358;-86
2021/03/14 06:30:28;;;;;;;9.83;5.17;;;9.40;99.90;;;;;;4901630;29;20285;-84
2021/03/14 06:33:09;;;;;;;7.93;4.47;;;9.40;99.90;;;;;;4914515;29;20209;-86
2021/03/14 06:35:47;;;;;;;7.20;3.73;;;9.40;99.90;;;;;;4914875;29;20248;-87
2021/03/14 06:38:26;;;;;;;8.00;4.03;;;9.30;99.90;;;;;;4913257;29;20249;-86
2021/03/14 06:41:20;;;;;;;5.93;3.57;;;9.30;99.90;;;;;;4918598;29;20272;-85
2021/03/14 06:43:52;;;;;;;9.53;3.73;;;9.20;99.90;;;;;;4919828;29;20280;-85
2021/03/14 06:46:24;;;;;;;6.87;3.70;;;9.10;99.90;;;;;;4921932;29;20581;-86
2021/03/14 06:49:07;;;;;;;4.87;3.43;;;9.00;99.90;;;;;;4920111;29;20212;-86
2021/03/14 06:51:39;;;;;;;7.93;3.77;;;8.90;99.90;;;;;;4920442;29;20237;-86
2021/03/14 06:54:25;;;;;;;6.60;3.60;;;8.90;99.90;;;;;;4906209;29;20250;-86
2021/03/14 06:57:13;;;;;;;6.43;4.87;;;8.90;99.90;;;;;;4900127;29;20212;-85
2021/03/14 07:00:02;;;;;;;4.90;3.40;;;8.90;99.90;;;;;;4903555;29;20261;-88
2021/03/14 07:02:39;;;;;;;5.50;3.33;;;8.90;99.90;;;;;;4905941;29;20221;-86
2021/03/14 07:05:11;;;;;;;6.53;3.13;;;8.80;99.90;;;;;;4917440;29;20270;-86
2021/03/14 07:07:45;;;;;;;8.13;4.20;;;8.80;99.90;;;;;;4919023;29;20209;-86
2021/03/14 07:10:17;;;;;;;7.63;3.93;;;8.70;99.90;;;;;;4917570;29;20209;-85
2021/03/14 07:12:49;;;;;;;7.40;3.83;;;8.70;99.90;;;;;;4921073;29;20680;-85
2021/03/14 07:15:21;;;;;;;8.83;4.30;;;8.60;99.90;;;;;;4919897;29;20295;-87
2021/03/14 07:17:54;;;;;;;9.23;4.83;;;8.70;99.90;;;;;;4920622;29;20193;-86
2021/03/14 07:20:28;;;;;;;6.90;3.33;;;8.60;99.90;;;;;;4948359;29;20220;-85
2021/03/14 07:23:02;;;;;;;8.03;3.77;;;8.60;99.90;;;;;;4937403;29;20207;-87
2021/03/14 07:25:36;;;;;;;9.37;3.50;;;8.60;99.90;;;;;;4922129;29;20268;-87
2021/03/14 07:28:07;;;;;;;7.33;3.37;;;8.60;99.90;;;;;;4917243;29;20227;-86
2021/03/14 07:30:40;;;;;;;8.10;3.60;;;8.50;99.90;;;;;;4913027;29;20250;-86
2021/03/14 07:33:13;;;;;;;4.47;2.90;;;8.50;99.90;;;;;;4902294;29;20213;-85
2021/03/14 07:35:44;;;;;;;7.50;3.20;;;8.50;99.90;;;;;;4900048;29;20213;-87
2021/03/14 07:38:19;;;;;;;6.40;3.10;;;8.50;99.90;;;;;;4913589;29;20285;-87
2021/03/14 07:40:50;;;;;;;4.90;2.93;;;8.50;99.90;;;;;;4921585;29;20236;-86
2021/03/14 07:46:08;;;;;;;4.03;2.53;;;8.30;99.90;;;;;;4918938;29;20266;-85
2021/03/14 07:48:42;;;;;;;5.53;2.90;;;8.30;99.90;;;;;;4918882;29;20217;-86
2021/03/14 07:51:13;;;;;;;2.93;2.23;;;8.30;99.90;;;;;;4920073;29;20213;-87
2021/03/14 07:53:53;;;;;;;4.73;2.83;;;8.20;99.90;;;;;;4922922;29;20228;-86
2021/03/14 07:56:24;;;;;;;4.77;2.80;;;8.20;99.90;;;;;;4922712;29;20628;-86
2021/03/14 07:58:58;;;;;;;14.93;2.80;;;8.10;99.90;;;;;;4924176;29;20282;-86
2021/03/14 08:01:31;;;;;;;5.23;2.83;;;8.10;99.90;;;;;;4921184;29;20741;-86
2021/03/14 08:04:02;;;;;;;5.47;2.90;;;8.00;99.90;;;;;;4900517;29;20605;-87
2021/03/14 08:06:52;;;;;;;3.40;2.93;;;8.00;99.90;;;;;;4899437;29;20232;-87
2021/03/14 08:09:52;;;;;;;5.23;2.90;;;7.90;99.90;;;;;;4898589;29;20647;-86
2021/03/14 08:12:25;;;;;;;5.37;3.40;;;7.80;99.90;;;;;;4898136;29;20895;-86
2021/03/14 08:14:57;;;;;;;8.60;2.80;;;7.80;99.90;;;;;;4897906;29;20268;-87
2021/03/14 08:17:36;;;;;;;6.20;3.50;;;7.70;99.90;;;;;;4897867;29;20231;-86
2021/03/14 08:20:09;;;;;;;5.20;3.03;;;7.60;99.90;;;;;;4899588;29;20236;-87
2021/03/14 08:22:49;;;;;;;5.57;2.90;;;7.60;99.90;;;;;;4899246;29;20285;-86
2021/03/14 08:25:43;;;;;;;7.53;3.40;;;7.50;99.90;;;;;;4902813;29;20224;-89
2021/03/14 08:28:31;;;;;;;5.53;2.93;;;7.50;99.90;;;;;;4897754;29;20262;-86
2021/03/14 08:31:04;;;;;;;7.43;3.00;;;7.40;99.90;;;;;;4880353;29;20216;-86
2021/03/14 08:33:43;;;;;;;4.60;2.70;;;7.60;99.90;;;;;;4879857;29;20247;-85
2021/03/14 08:36:16;;;;;;;5.90;2.90;;;7.60;99.90;;;;;;4879810;29;20624;-86
2021/03/14 08:38:52;;;;;;;7.87;3.10;;;7.50;99.90;;;;;;4909103;29;20252;-85
2021/03/14 08:41:30;;;;;;;8.87;2.93;;;7.40;99.90;;;;;;4909033;29;20776;-84
2021/03/14 08:44:14;;;;;;;5.43;2.80;;;7.40;99.90;;;;;;4911930;29;20205;-85
2021/03/14 08:47:08;;;;;;;3.40;2.50;;;7.30;99.90;;;;;;4901097;29;20214;-86
2021/03/14 08:49:41;;;;;;;5.83;2.70;;;7.30;99.90;;;;;;4900841;29;20734;-85
2021/03/14 08:52:13;;;;;;;6.70;3.07;;;7.20;99.90;;;;;;4899060;29;20209;-85
2021/03/14 08:54:45;;;;;;;4.90;2.70;;;7.10;99.90;;;;;;4899560;29;20221;-85
2021/03/14 08:57:19;;;;;;;6.97;2.70;;;7.10;99.90;;;;;;4880100;29;20666;-86
2021/03/14 08:59:51;;;;;;;5.40;2.60;;;7.10;99.90;;;;;;4892589;29;20209;-86
2021/03/14 09:02:23;;;;;;;5.73;2.50;;;7.00;99.90;;;;;;4903461;29;20371;-85
2021/03/14 09:04:55;;;;;;;4.33;2.40;;;6.90;99.90;;;;;;4907070;29;20588;-86
2021/03/14 09:07:26;;;;;;;7.67;2.80;;;6.80;99.90;;;;;;4906444;29;20214;-86
2021/03/14 09:09:57;;;;;;;6.30;2.77;;;6.80;99.90;;;;;;4905786;29;20252;-86
2021/03/14 09:12:31;;;;;;;3.07;2.27;;;6.80;99.90;;;;;;4900271;29;20690;-86
2021/03/14 09:15:06;;;;;;;7.77;2.30;;;6.70;99.90;;;;;;4899280;29;20308;-86
2021/03/14 09:17:39;;;;;;;4.53;2.60;;;6.70;99.90;;;;;;4899757;29;20273;-86
2021/03/14 09:20:21;;;;;;;5.90;2.60;;;6.60;99.90;;;;;;4899643;29;20216;-87
2021/03/14 09:22:52;;;;;;;4.00;2.57;;;6.60;99.90;;;;;;4899302;29;20642;-86
2021/03/14 09:25:23;;;;;;;4.73;2.40;;;6.60;99.90;;;;;;4884552;29;20203;-86
2021/03/14 09:27:55;;;;;;;7.90;2.40;;;6.50;99.90;;;;;;4880766;29;20210;-87
2021/03/14 09:30:26;;;;;;;3.97;2.20;;;6.50;99.90;;;;;;4881907;29;20680;-86
2021/03/14 09:33:04;;;;;;;5.57;2.43;;;6.50;99.90;;;;;;4898333;29;20240;-86
2021/03/14 09:35:36;;;;;;;5.50;3.00;;;6.50;99.90;;;;;;4900412;29;20274;-85
2021/03/14 09:38:09;;;;;;;5.07;2.90;;;6.60;99.90;;;;;;4911642;29;20206;-86
2021/03/14 09:40:46;;;;;;;7.77;3.07;;;6.60;99.90;;;;;;4900913;29;20233;-86
2021/03/14 09:43:20;;;;;;;7.03;3.07;;;6.60;99.90;;;;;;4901270;29;20261;-86
2021/03/14 09:45:52;;;;;;;5.43;3.37;;;6.60;99.90;;;;;;4913789;29;20211;-86
2021/03/14 09:48:25;;;;;;;4.17;2.47;;;6.60;99.90;;;;;;4921754;29;20292;-86
2021/03/14 09:50:57;;;;;;;5.37;2.70;;;6.70;99.90;;;;;;4926089;29;20247;-85
2021/03/14 09:53:30;;;;;;;6.13;2.67;;;6.70;99.90;;;;;;4922028;29;20258;-86
2021/03/14 09:56:02;;;;;;;6.50;2.67;;;6.70;99.90;;;;;;4911465;29;20213;-85
2021/03/14 09:58:35;;;;;;;4.50;2.67;;;6.80;99.90;;;;;;4909697;29;20281;-85
2021/03/14 10:01:09;;;;;;;8.47;2.73;;;6.70;99.90;;;;;;4908380;29;20247;-85
2021/03/14 10:03:41;;;;;;;5.50;2.50;;;6.70;99.90;;;;;;4904538;29;20209;-84
2021/03/14 10:06:38;;;;;;;6.03;2.60;;;6.70;99.90;;;;;;4906699;29;20220;-85
2021/03/14 10:09:09;;;;;;;3.83;2.30;;;6.70;99.90;;;;;;4904187;29;20217;-85
2021/03/14 10:11:39;;;;;;;3.87;2.40;;;6.60;99.90;;;;;;4903444;29;20263;-85
2021/03/14 10:14:11;;;;;;;6.07;2.37;;;6.70;99.90;;;;;;4901864;29;20259;-86
2021/03/14 10:16:42;;;;;;;6.80;3.17;;;6.70;99.90;;;;;;4902006;29;20226;-86
2021/03/14 10:19:12;;;;;;;5.23;2.60;;;6.70;99.90;;;;;;4903768;29;20218;-86
2021/03/14 10:21:47;;;;;;;6.63;2.83;;;6.70;99.90;;;;;;4902753;29;20229;-86
2021/03/14 10:24:21;;;;;;;7.27;2.50;;;6.70;99.90;;;;;;4902840;29;20697;-86
2021/03/14 10:26:53;;;;;;;5.00;2.90;;;6.70;99.90;;;;;;4901988;29;20221;-86
2021/03/14 10:29:30;;;;;;;6.47;2.60;;;6.60;99.90;;;;;;4902743;29;20214;-86
2021/03/14 10:32:01;;;;;;;7.47;2.73;;;6.60;99.90;;;;;;4918889;29;20240;-85
2021/03/14 10:34:32;;;;;;;9.17;3.00;;;6.60;99.90;;;;;;4926979;29;20212;-86
2021/03/14 10:37:03;;;;;;;10.67;3.20;;;6.60;99.90;;;;;;4906300;29;20297;-85
2021/03/14 10:39:33;;;;;;;7.20;2.93;;;6.50;99.90;;;;;;4883810;29;20574;-86
2021/03/14 10:42:04;;;;;;;7.33;3.20;;;6.50;99.90;;;;;;4901570;29;20272;-85
2021/03/14 10:44:36;;;;;;;6.33;2.93;;;6.50;99.90;;;;;;4903129;29;20210;-85
2021/03/14 10:47:16;;;;;;;6.43;3.13;;;6.50;99.90;;;;;;4902432;29;20213;-86
2021/03/14 10:49:47;;;;;;;5.63;3.00;;;6.50;99.90;;;;;;4904030;29;20252;-86
2021/03/14 10:52:18;;;;;;;7.30;3.30;;;6.40;99.90;;;;;;4912743;29;20666;-86
2021/03/14 10:54:48;;;;;;;7.33;3.10;;;6.40;99.90;;;;;;4917945;29;20202;-86
2021/03/14 10:57:18;;;;;;;9.37;3.30;;;6.40;99.90;;;;;;4918639;29;20242;-86
2021/03/14 10:59:50;;;;;;;8.30;3.10;;;6.40;99.90;;;;;;4919095;29;20214;-86
2021/03/14 11:02:23;;;;;;;4.77;3.00;;;6.40;99.90;;;;;;4904145;29;20233;-86
2021/03/14 11:04:54;;;;;;;6.87;3.07;;;6.50;99.90;;;;;;4904731;29;20214;-86
2021/03/14 11:07:26;;;;;;;7.50;2.97;;;6.40;99.90;;;;;;4902398;29;20262;-86
2021/03/14 11:10:08;;;;;;;8.93;3.20;;;6.40;99.90;;;;;;4901669;29;20209;-86
2021/03/14 11:12:40;;;;;;;6.67;3.00;;;6.40;99.90;;;;;;4901056;29;20626;-86
2021/03/14 11:15:27;;;;;;;4.97;2.97;;;6.40;99.90;;;;;;4901817;29;20217;-87
2021/03/14 11:18:01;;;;;;;6.93;2.60;;;6.40;99.90;;;;;;4900680;29;20218;-86
2021/03/14 11:20:34;;;;;;;5.20;3.00;;;6.40;99.90;;;;;;4900476;29;20226;-86
2021/03/14 11:23:05;;;;;;;8.13;2.93;;;6.40;99.90;;;;;;4899706;29;20225;-86
2021/03/14 11:25:36;;;;;;;6.53;3.00;;;6.40;99.90;;;;;;4900826;29;20245;-86
2021/03/14 11:28:10;;;;;;;8.93;3.07;;;6.40;99.90;;;;;;4898377;29;20213;-86
2021/03/14 11:30:42;;;;;;;8.37;3.17;;;6.40;99.90;;;;;;4900700;29;20257;-86
2021/03/14 11:33:12;;;;;;;10.53;2.97;;;6.40;99.90;;;;;;4900353;29;20281;-86
2021/03/14 11:35:43;;;;;;;7.90;2.57;;;6.50;99.90;;;;;;4899249;29;20241;-85
2021/03/14 11:38:16;;;;;;;7.20;2.40;;;6.60;99.90;;;;;;4900567;29;20222;-86
2021/03/14 11:40:53;;;;;;;4.90;2.27;;;6.60;99.90;;;;;;4901196;29;20220;-86
2021/03/14 11:43:25;;;;;;;9.60;2.60;;;6.70;99.90;;;;;;4900068;29;20253;-85
2021/03/14 11:45:57;;;;;;;5.53;2.80;;;6.60;99.90;;;;;;4919134;29;20212;-86
2021/03/14 11:48:28;;;;;;;7.50;2.83;;;6.60;99.90;;;;;;4919077;29;20230;-85
2021/03/14 11:50:58;;;;;;;4.40;2.33;;;6.60;99.90;;;;;;4911736;29;20281;-86
2021/03/14 11:53:28;;;;;;;8.07;2.80;;;6.50;99.90;;;;;;4902171;29;20222;-85
2021/03/14 11:56:00;;;;;;;7.27;2.40;;;6.50;99.90;;;;;;4902003;29;20209;-86
2021/03/14 11:58:30;;;;;;;3.83;2.10;;;6.40;99.90;;;;;;4903468;29;20242;-86
2021/03/14 12:01:02;;;;;;;5.30;2.00;;;6.40;99.90;;;;;;4905308;29;20754;-85
2021/03/14 12:03:33;;;;;;;5.30;2.60;;;6.50;99.90;;;;;;4904315;29;20277;-86
2021/03/14 12:06:05;;;;;;;8.13;2.70;;;6.50;99.90;;;;;;4902105;29;20214;-85
2021/03/14 12:08:37;;;;;;;9.80;3.13;;;6.40;99.90;;;;;;4901161;29;20213;-86
2021/03/14 12:11:10;;;;;;;5.83;2.77;;;6.40;99.90;;;;;;4902778;29;20689;-85
2021/03/14 12:13:42;;;;;;;9.53;2.90;;;6.30;99.90;;;;;;4901331;29;20344;-86
2021/03/14 12:16:15;;;;;;;8.50;2.43;;;6.20;99.90;;;;;;4900692;29;20220;-86
2021/03/14 12:18:46;;;;;;;4.13;2.23;;;6.20;99.90;;;;;;4899456;29;20217;-85
2021/03/14 12:21:16;;;;;;;5.30;2.77;;;6.20;99.90;;;;;;4900319;29;20244;-86
2021/03/14 12:23:47;;;;;;;6.23;2.80;;;6.10;99.90;;;;;;4899629;29;20241;-86
2021/03/14 12:26:17;;;;;;;7.23;2.77;;;6.00;99.90;;;;;;4899826;29;20210;-85
2021/03/14 12:28:48;;;;;;;7.53;2.87;;;6.00;99.90;;;;;;4899852;29;20216;-86
2021/03/14 12:31:20;;;;;;;4.97;2.80;;;6.00;99.90;;;;;;4899769;29;20226;-86
2021/03/14 12:33:51;;;;;;;8.07;2.80;;;6.00;99.90;;;;;;4899398;29;20217;-86
2021/03/14 12:36:22;;;;;;;7.67;3.13;;;6.00;99.90;;;;;;4899147;29;20201;-85
2021/03/14 12:38:52;;;;;;;7.77;3.00;;;6.10;99.90;;;;;;4898670;29;20679;-86
2021/03/14 12:41:22;;;;;;;6.40;2.93;;;6.00;99.90;;;;;;4899068;29;20270;-86
2021/03/14 12:43:52;;;;;;;6.67;3.10;;;6.10;99.90;;;;;;4899050;29;20296;-85
2021/03/14 12:46:24;;;;;;;7.03;2.80;;;6.10;99.90;;;;;;4899300;29;20220;-85
2021/03/14 12:48:53;;;;;;;4.80;2.50;;;6.10;99.90;;;;;;4898079;29;20588;-86
2021/03/14 12:51:24;;;;;;;8.13;2.73;;;6.00;99.90;;;;;;4899059;29;20273;-85
2021/03/14 12:53:54;;;;;;;7.27;3.20;;;6.00;99.90;;;;;;4899163;29;20591;-85
2021/03/14 12:56:26;;;;;;;6.83;2.77;;;6.00;99.90;;;;;;4898472;29;20269;-86
2021/03/14 12:59:00;;;;;;;5.83;2.50;;;6.00;99.90;;;;;;4899422;29;20952;-85
2021/03/14 13:01:32;;;;;;;10.13;3.63;;;6.00;99.90;;;;;;4918163;29;20248;-85
2021/03/14 13:04:03;;;;;;;9.83;2.87;;;6.00;99.90;;;;;;4918362;29;20733;-85
2021/03/14 13:06:34;;;;;;;4.77;2.60;;;6.00;99.90;;;;;;4918256;29;20209;-85
2021/03/14 13:09:05;;;;;;;6.37;2.80;;;6.00;99.90;;;;;;4917822;29;20654;-84
2021/03/14 13:11:35;;;;;;;4.20;2.70;;;6.00;99.90;;;;;;4918379;29;20213;-84
2021/03/14 13:14:05;;;;;;;5.30;2.53;;;6.10;99.90;;;;;;4917867;29;20548;-85
2021/03/14 13:16:37;;;;;;;6.37;2.60;;;6.20;99.90;;;;;;4918064;29;20217;-87
2021/03/14 13:19:08;;;;;;;10.60;3.17;;;6.10;99.90;;;;;;4919029;29;20205;-85
2021/03/14 13:21:38;;;;;;;11.33;2.97;;;6.10;99.90;;;;;;4921776;29;20229;-85
2021/03/14 13:24:09;;;;;;;5.27;2.80;;;6.10;99.90;;;;;;4923646;29;20209;-85
2021/03/14 13:26:43;;;;;;;6.73;2.80;;;6.00;99.90;;;;;;4928155;29;20251;-84
2021/03/14 13:29:14;;;;;;;8.53;2.70;;;6.00;99.90;;;;;;4928017;29;20653;-86